Arock, OR

7:06 PM MDT on October 24, 2014 (GMT -0600)
Nampa | Change Station
CLOSE
Current Station
Airport
Location: Nampa,
Elevation: 2536 ft
Nearby Weather Stations
Active Advisory: Wind Advisory Active Notice: Record Report

Elev 2536 ft 43.58 °N, 116.52 °W | Updated 11 minutes ago

Clear
Clear
57 °F
Feels Like 57 °F
N
4
Wind Variable Wind from West

Today
High -- | Low -- °F
--% Chance of Precip.
Yesterday
High -- | Low -- °F
Precip. -- in
8:14 AM 6:53 PM
New Moon, 1% visible
Pressure 29.97 in
Visibility 10.0 miles
Clouds Clear
Dew Point 54 °F
Humidity 88%
Rainfall 0.00 in
Snow Depth Not available.
UV 0 out of 12
Pollen 1.40 out of 12
Air Quality Not available.
Flu Activity Sporadic
METAR KMAN 250055Z AUTO 28003KT 10SM CLR 14/12 A2997 RMK AO1

More Conditions Fewer Conditions

Pressure 29.97 in
Visibility 10.0 miles
Clouds Clear
Dew Point 54 °F
Humidity 88%
Rainfall 0.00 in
Snow Depth Not available.
UV 0 out of 12
Pollen 1.40 out of 12
Air Quality Not available.
Flu Activity Sporadic
METAR KMAN 250055Z AUTO 28003KT 10SM CLR 14/12 A2997 RMK AO1

More Conditions Fewer Conditions

10-Day Weather Forecast

Almanac

Astronomy

Oct. 24, 2014 Rise Set
Actual Time 8:14 AM MDT 6:53 PM MDT
Civil Twilight 7:45 AM MDT 7:22 PM MDT
Nautical Twilight 7:12 AM MDT 7:55 PM MDT
Astronomical Twilight 6:39 AM MDT 8:27 PM MDT
Moon 8:58 AM MDT (10/24) 7:35 PM MDT (10/24)
Length of Visible Light 11h 36m
Length of Day
10h 38m
Tomorrow will be 2m 42s shorter.
New Moon, 1% of the Moon is Illuminated
Today
New Moon
Oct 30
First Quarter
Nov 6
Full
Nov 14
Last Quarter
Nov 22
New

Today's Extremes

State Highs State Lows

Community

WunderPhotos

Upload Photos

1,764,737 photos uploaded!

WunderBlogs® & News

Nearby

Snow Depth

Station Depth Elevation
Blue Mountain Spring 0 in 5900 ft
Snow Mountain 0 in 6220 ft
Tipton 0 in 5150 ft
Gold Center 0 in 5340 ft
Bourne 0 in 5800 ft

Earthquake Activity

City Distance Mag. Time & Date
No recent earthquake activity has been reported nearby.
Minimum magnitude displayed is 2.5.

Coastal Water Temperatures

Place Temperature
No Stations Reporting

Nearby Weather Stations